If you wish to contribute or participate in the discussions about articles you are invited to join SKYbrary as a registered user

 Actions

Ambler Airport

From SKYbrary Wiki

PAFM
Airport
ICAO: PAFM – IATA: ABL
Summary
Name Ambler Airport
Region North America
Territory Alaska US.gif
Location , Alaska
Serving Ambler
Elevation 101.803 m
334 ft
334 ft101.803 m
Type medium airport
Coordinates 67° 6' 23.0004", -157° 51' 27"
Runways
Designator Length Width Surface ROPS
9/27 732 m2,401.575 ft 18 m59.055 ft GVL /
18/36 914 m2,998.688 ft 18 m59.055 ft GVL /
METAR
Observation PAFM 120223Z AUTO 04012KT 6SM -SN BR OVC013 M07/M08 A2944 RMK AO2 P0000 FZRANO
Station Ambler, Ambler Airport
Date/Time 12 December 2017 02:23:00
Wind direction 40°
Wind speed 12 kts
Lowest cloud amount overcast
Temperature
Dew point
Humidity 92%
QNH hPa
Weather condition light